sensor_id;sensor_type;location;lat;lon;timestamp;pressure;altitude;pressure_sealevel;temperature;humidity
5380;BME280;2713;42.680;23.310;2023-11-19T00:00:28;95063.03;;;5.19;69.13
5380;BME280;2713;42.680;23.310;2023-11-19T00:02:55;95066.00;;;5.24;69.24
5380;BME280;2713;42.680;23.310;2023-11-19T00:05:22;95065.81;;;5.25;68.55
5380;BME280;2713;42.680;23.310;2023-11-19T00:07:49;95074.81;;;5.21;69.03
5380;BME280;2713;42.680;23.310;2023-11-19T00:10:17;95064.88;;;5.26;69.31
5380;BME280;2713;42.680;23.310;2023-11-19T00:12:46;95060.59;;;5.35;68.30
5380;BME280;2713;42.680;23.310;2023-11-19T00:15:14;95059.28;;;5.31;67.78
5380;BME280;2713;42.680;23.310;2023-11-19T00:17:44;95062.09;;;5.37;68.42
5380;BME280;2713;42.680;23.310;2023-11-19T00:20:12;95061.78;;;5.40;68.07
5380;BME280;2713;42.680;23.310;2023-11-19T00:22:39;95072.31;;;5.29;68.60
5380;BME280;2713;42.680;23.310;2023-11-19T00:25:07;95042.94;;;5.22;67.59
5380;BME280;2713;42.680;23.310;2023-11-19T00:27:34;95070.16;;;5.42;67.67
5380;BME280;2713;42.680;23.310;2023-11-19T00:30:04;95069.59;;;5.31;68.29
5380;BME280;2713;42.680;23.310;2023-11-19T00:32:32;95070.78;;;5.36;67.96
5380;BME280;2713;42.680;23.310;2023-11-19T00:35:00;95057.56;;;5.22;68.58
5380;BME280;2713;42.680;23.310;2023-11-19T00:37:28;95078.41;;;5.28;67.59
5380;BME280;2713;42.680;23.310;2023-11-19T00:39:55;95078.88;;;5.24;67.98
5380;BME280;2713;42.680;23.310;2023-11-19T00:42:22;95077.47;;;5.29;68.03
5380;BME280;2713;42.680;23.310;2023-11-19T00:44:49;95073.44;;;5.27;68.17
5380;BME280;2713;42.680;23.310;2023-11-19T00:47:16;95066.78;;;5.24;68.87
5380;BME280;2713;42.680;23.310;2023-11-19T00:49:46;95052.94;;;5.07;69.13
5380;BME280;2713;42.680;23.310;2023-11-19T00:52:15;95072.97;;;5.14;68.82
5380;BME280;2713;42.680;23.310;2023-11-19T00:54:42;95073.03;;;5.22;69.38
5380;BME280;2713;42.680;23.310;2023-11-19T00:57:08;95066.88;;;5.32;69.04
5380;BME280;2713;42.680;23.310;2023-11-19T00:59:35;95077.31;;;5.13;68.92
5380;BME280;2713;42.680;23.310;2023-11-19T01:02:02;95077.09;;;5.06;69.35
5380;BME280;2713;42.680;23.310;2023-11-19T01:04:33;95071.94;;;5.06;69.15
5380;BME280;2713;42.680;23.310;2023-11-19T01:07:01;95050.34;;;5.07;69.58
5380;BME280;2713;42.680;23.310;2023-11-19T01:09:30;95072.16;;;5.13;69.14
5380;BME280;2713;42.680;23.310;2023-11-19T01:12:00;95078.47;;;5.19;69.02
5380;BME280;2713;42.680;23.310;2023-11-19T01:14:27;95085.91;;;5.22;69.38
5380;BME280;2713;42.680;23.310;2023-11-19T01:16:54;95052.13;;;5.07;68.75
5380;BME280;2713;42.680;23.310;2023-11-19T01:19:21;95089.69;;;5.27;69.07
5380;BME280;2713;42.680;23.310;2023-11-19T01:21:49;95080.78;;;5.22;68.98
5380;BME280;2713;42.680;23.310;2023-11-19T01:24:16;95077.59;;;5.28;68.67
5380;BME280;2713;42.680;23.310;2023-11-19T01:26:44;95082.41;;;5.23;68.99
5380;BME280;2713;42.680;23.310;2023-11-19T01:29:12;95084.59;;;5.18;68.59
5380;BME280;2713;42.680;23.310;2023-11-19T01:31:40;95097.25;;;5.11;68.40
5380;BME280;2713;42.680;23.310;2023-11-19T01:34:07;95086.63;;;5.14;68.53
5380;BME280;2713;42.680;23.310;2023-11-19T01:36:34;95102.97;;;5.05;68.91
5380;BME280;2713;42.680;23.310;2023-11-19T01:39:01;95110.41;;;5.08;69.13
5380;BME280;2713;42.680;23.310;2023-11-19T01:41:29;95106.19;;;5.17;68.68
5380;BME280;2713;42.680;23.310;2023-11-19T01:43:57;95100.69;;;5.02;67.96
5380;BME280;2713;42.680;23.310;2023-11-19T01:46:24;95101.75;;;5.09;68.17
5380;BME280;2713;42.680;23.310;2023-11-19T01:48:52;95098.16;;;5.20;68.22
5380;BME280;2713;42.680;23.310;2023-11-19T01:51:19;95102.41;;;5.11;67.80
5380;BME280;2713;42.680;23.310;2023-11-19T01:53:49;95106.00;;;5.18;67.02
5380;BME280;2713;42.680;23.310;2023-11-19T01:56:16;95107.34;;;5.22;67.18
5380;BME280;2713;42.680;23.310;2023-11-19T01:58:44;95103.72;;;5.15;67.79
5380;BME280;2713;42.680;23.310;2023-11-19T02:01:14;95099.69;;;5.13;66.85
5380;BME280;2713;42.680;23.310;2023-11-19T02:03:41;95098.66;;;5.05;66.80
5380;BME280;2713;42.680;23.310;2023-11-19T02:06:08;95099.47;;;5.06;67.01
5380;BME280;2713;42.680;23.310;2023-11-19T02:08:36;95084.44;;;5.19;66.24
5380;BME280;2713;42.680;23.310;2023-11-19T02:11:04;95085.66;;;4.97;67.38
5380;BME280;2713;42.680;23.310;2023-11-19T02:13:32;95082.22;;;4.89;66.86
5380;BME280;2713;42.680;23.310;2023-11-19T02:16:01;95086.78;;;4.95;67.08
5380;BME280;2713;42.680;23.310;2023-11-19T02:18:30;95085.13;;;4.94;67.39
5380;BME280;2713;42.680;23.310;2023-11-19T02:20:57;95086.63;;;4.96;67.42
5380;BME280;2713;42.680;23.310;2023-11-19T02:23:26;95081.72;;;5.03;67.55
5380;BME280;2713;42.680;23.310;2023-11-19T02:26:02;95091.63;;;4.98;67.34
5380;BME280;2713;42.680;23.310;2023-11-19T02:28:33;95089.34;;;4.95;67.70
5380;BME280;2713;42.680;23.310;2023-11-19T02:31:00;95099.66;;;4.95;67.12
5380;BME280;2713;42.680;23.310;2023-11-19T02:33:27;95097.41;;;4.82;67.51
5380;BME280;2713;42.680;23.310;2023-11-19T02:35:54;95082.53;;;4.76;67.19
5380;BME280;2713;42.680;23.310;2023-11-19T02:38:21;95082.91;;;4.81;67.42
5380;BME280;2713;42.680;23.310;2023-11-19T02:40:48;95072.44;;;4.92;67.53
5380;BME280;2713;42.680;23.310;2023-11-19T02:43:15;95091.66;;;5.16;66.84
5380;BME280;2713;42.680;23.310;2023-11-19T02:45:45;95082.69;;;5.20;66.24
5380;BME280;2713;42.680;23.310;2023-11-19T02:48:11;95089.56;;;5.01;66.62
5380;BME280;2713;42.680;23.310;2023-11-19T02:50:39;95094.63;;;4.93;66.61
5380;BME280;2713;42.680;23.310;2023-11-19T02:53:06;95100.31;;;4.97;67.50
5380;BME280;2713;42.680;23.310;2023-11-19T02:55:33;95090.88;;;4.88;67.27
5380;BME280;2713;42.680;23.310;2023-11-19T02:58:03;95082.09;;;4.81;67.54
5380;BME280;2713;42.680;23.310;2023-11-19T03:00:35;95081.63;;;4.68;67.95
5380;BME280;2713;42.680;23.310;2023-11-19T03:03:09;95079.22;;;4.84;67.22
5380;BME280;2713;42.680;23.310;2023-11-19T03:05:45;95079.47;;;4.90;67.69
5380;BME280;2713;42.680;23.310;2023-11-19T03:08:14;95085.84;;;4.86;66.87
5380;BME280;2713;42.680;23.310;2023-11-19T03:10:41;95087.41;;;4.79;67.09
5380;BME280;2713;42.680;23.310;2023-11-19T03:13:11;95093.09;;;4.83;67.06
5380;BME280;2713;42.680;23.310;2023-11-19T03:15:39;95108.66;;;4.81;68.02
5380;BME280;2713;42.680;23.310;2023-11-19T03:18:06;95107.44;;;4.85;67.30
5380;BME280;2713;42.680;23.310;2023-11-19T03:20:35;95104.63;;;4.79;67.87
5380;BME280;2713;42.680;23.310;2023-11-19T03:23:02;95099.94;;;4.65;67.92
5380;BME280;2713;42.680;23.310;2023-11-19T03:25:29;95094.78;;;4.65;68.03
5380;BME280;2713;42.680;23.310;2023-11-19T03:28:00;95088.59;;;4.57;68.38
5380;BME280;2713;42.680;23.310;2023-11-19T03:30:27;95097.41;;;4.55;68.46
5380;BME280;2713;42.680;23.310;2023-11-19T03:32:55;95087.66;;;4.49;68.69
5380;BME280;2713;42.680;23.310;2023-11-19T03:35:22;95084.00;;;4.51;68.63
5380;BME280;2713;42.680;23.310;2023-11-19T03:37:50;95096.16;;;4.59;68.83
5380;BME280;2713;42.680;23.310;2023-11-19T03:40:18;95091.16;;;4.57;69.10
5380;BME280;2713;42.680;23.310;2023-11-19T03:42:45;95107.25;;;4.69;69.08
5380;BME280;2713;42.680;23.310;2023-11-19T03:45:12;95104.91;;;4.76;67.79
5380;BME280;2713;42.680;23.310;2023-11-19T03:47:39;95108.91;;;4.88;67.72
5380;BME280;2713;42.680;23.310;2023-11-19T03:50:07;95122.44;;;4.90;67.73
5380;BME280;2713;42.680;23.310;2023-11-19T03:52:34;95124.94;;;4.82;67.41
5380;BME280;2713;42.680;23.310;2023-11-19T03:55:03;95124.25;;;4.80;67.62
5380;BME280;2713;42.680;23.310;2023-11-19T03:57:31;95121.97;;;4.77;68.02
5380;BME280;2713;42.680;23.310;2023-11-19T03:59:57;95114.38;;;4.75;67.62
5380;BME280;2713;42.680;23.310;2023-11-19T04:02:25;95129.47;;;4.60;67.84
5380;BME280;2713;42.680;23.310;2023-11-19T04:04:53;95138.84;;;4.62;67.93
5380;BME280;2713;42.680;23.310;2023-11-19T04:07:21;95128.44;;;4.53;68.30
5380;BME280;2713;42.680;23.310;2023-11-19T04:09:48;95132.06;;;4.60;68.68
5380;BME280;2713;42.680;23.310;2023-11-19T04:12:16;95161.59;;;4.56;68.74
5380;BME280;2713;42.680;23.310;2023-11-19T04:14:43;95155.22;;;4.60;68.36
5380;BME280;2713;42.680;23.310;2023-11-19T04:17:10;95156.16;;;4.59;67.99
5380;BME280;2713;42.680;23.310;2023-11-19T04:19:37;95157.38;;;4.65;67.97
5380;BME280;2713;42.680;23.310;2023-11-19T04:22:06;95159.38;;;4.71;68.54
5380;BME280;2713;42.680;23.310;2023-11-19T04:24:33;95160.34;;;4.70;68.41
5380;BME280;2713;42.680;23.310;2023-11-19T04:27:00;95165.44;;;4.80;67.61
5380;BME280;2713;42.680;23.310;2023-11-19T04:29:29;95148.47;;;4.87;67.11
5380;BME280;2713;42.680;23.310;2023-11-19T04:31:56;95162.31;;;4.86;66.75
5380;BME280;2713;42.680;23.310;2023-11-19T04:34:23;95168.78;;;4.90;67.14
5380;BME280;2713;42.680;23.310;2023-11-19T04:36:51;95173.94;;;4.90;66.71
5380;BME280;2713;42.680;23.310;2023-11-19T04:39:17;95170.75;;;4.78;66.95
5380;BME280;2713;42.680;23.310;2023-11-19T04:41:48;95183.94;;;4.66;67.47
5380;BME280;2713;42.680;23.310;2023-11-19T04:44:15;95152.16;;;4.47;67.38
5380;BME280;2713;42.680;23.310;2023-11-19T04:46:44;95172.50;;;4.78;66.96
5380;BME280;2713;42.680;23.310;2023-11-19T04:49:12;95152.56;;;4.80;66.45
5380;BME280;2713;42.680;23.310;2023-11-19T04:51:39;95169.00;;;5.06;66.15
5380;BME280;2713;42.680;23.310;2023-11-19T04:54:07;95186.22;;;5.05;66.18
5380;BME280;2713;42.680;23.310;2023-11-19T04:56:35;95180.88;;;5.17;66.51
5380;BME280;2713;42.680;23.310;2023-11-19T04:59:03;95179.19;;;4.98;66.45
5380;BME280;2713;42.680;23.310;2023-11-19T05:01:31;95180.13;;;5.06;66.77
5380;BME280;2713;42.680;23.310;2023-11-19T05:04:00;95183.69;;;4.96;66.24
5380;BME280;2713;42.680;23.310;2023-11-19T05:06:27;95193.75;;;4.89;66.64
5380;BME280;2713;42.680;23.310;2023-11-19T05:08:55;95209.16;;;4.99;66.19
5380;BME280;2713;42.680;23.310;2023-11-19T05:11:22;95215.53;;;4.95;65.58
5380;BME280;2713;42.680;23.310;2023-11-19T05:13:48;95204.59;;;4.93;66.26
5380;BME280;2713;42.680;23.310;2023-11-19T05:16:15;95196.34;;;4.89;66.00
5380;BME280;2713;42.680;23.310;2023-11-19T05:18:43;95202.13;;;4.91;66.07
5380;BME280;2713;42.680;23.310;2023-11-19T05:21:11;95197.81;;;4.92;66.59
5380;BME280;2713;42.680;23.310;2023-11-19T05:23:38;95204.31;;;4.86;66.40
5380;BME280;2713;42.680;23.310;2023-11-19T05:26:07;95195.06;;;5.03;66.14
5380;BME280;2713;42.680;23.310;2023-11-19T05:28:34;95197.66;;;5.21;65.50
5380;BME280;2713;42.680;23.310;2023-11-19T05:31:01;95200.75;;;4.97;65.76
5380;BME280;2713;42.680;23.310;2023-11-19T05:33:27;95195.19;;;5.01;65.98
5380;BME280;2713;42.680;23.310;2023-11-19T05:35:54;95192.47;;;5.03;66.03
5380;BME280;2713;42.680;23.310;2023-11-19T05:38:23;95190.13;;;4.82;65.88
5380;BME280;2713;42.680;23.310;2023-11-19T05:40:50;95193.50;;;4.83;66.36
5380;BME280;2713;42.680;23.310;2023-11-19T05:43:17;95205.34;;;5.03;65.96
5380;BME280;2713;42.680;23.310;2023-11-19T05:45:44;95208.97;;;4.83;66.26
5380;BME280;2713;42.680;23.310;2023-11-19T05:48:11;95218.97;;;4.86;66.68
5380;BME280;2713;42.680;23.310;2023-11-19T05:50:38;95221.41;;;4.87;65.58
5380;BME280;2713;42.680;23.310;2023-11-19T05:53:05;95199.97;;;4.87;65.73
5380;BME280;2713;42.680;23.310;2023-11-19T05:55:36;95217.88;;;4.88;66.63
5380;BME280;2713;42.680;23.310;2023-11-19T05:58:10;95216.53;;;4.84;66.76
5380;BME280;2713;42.680;23.310;2023-11-19T06:00:38;95229.69;;;4.81;67.16
5380;BME280;2713;42.680;23.310;2023-11-19T06:03:04;95224.22;;;4.94;66.68
5380;BME280;2713;42.680;23.310;2023-11-19T06:05:31;95215.94;;;5.00;66.06
5380;BME280;2713;42.680;23.310;2023-11-19T06:07:58;95237.56;;;4.70;67.18
5380;BME280;2713;42.680;23.310;2023-11-19T06:10:25;95236.22;;;4.66;67.58
5380;BME280;2713;42.680;23.310;2023-11-19T06:12:57;95239.59;;;4.76;67.30
5380;BME280;2713;42.680;23.310;2023-11-19T06:15:25;95239.00;;;4.92;66.48
5380;BME280;2713;42.680;23.310;2023-11-19T06:17:52;95230.06;;;4.96;66.79
5380;BME280;2713;42.680;23.310;2023-11-19T06:20:19;95228.72;;;4.92;66.33
5380;BME280;2713;42.680;23.310;2023-11-19T06:22:46;95229.94;;;4.88;66.43
5380;BME280;2713;42.680;23.310;2023-11-19T06:25:13;95232.66;;;4.77;66.76
5380;BME280;2713;42.680;23.310;2023-11-19T06:27:41;95232.25;;;4.81;66.35
5380;BME280;2713;42.680;23.310;2023-11-19T06:30:10;95241.13;;;4.69;66.18
5380;BME280;2713;42.680;23.310;2023-11-19T06:32:38;95244.22;;;4.63;66.49
5380;BME280;2713;42.680;23.310;2023-11-19T06:35:08;95221.50;;;4.58;67.16
5380;BME280;2713;42.680;23.310;2023-11-19T06:37:35;95230.53;;;4.63;67.27
5380;BME280;2713;42.680;23.310;2023-11-19T06:40:02;95249.34;;;4.73;67.32
5380;BME280;2713;42.680;23.310;2023-11-19T06:42:30;95238.22;;;4.82;66.78
5380;BME280;2713;42.680;23.310;2023-11-19T06:44:57;95239.13;;;4.90;66.83
5380;BME280;2713;42.680;23.310;2023-11-19T06:47:26;95245.66;;;4.85;66.15
5380;BME280;2713;42.680;23.310;2023-11-19T06:49:53;95239.88;;;4.83;66.00
5380;BME280;2713;42.680;23.310;2023-11-19T06:52:20;95240.03;;;4.72;66.46
5380;BME280;2713;42.680;23.310;2023-11-19T06:54:47;95223.88;;;4.70;66.15
5380;BME280;2713;42.680;23.310;2023-11-19T06:57:14;95243.16;;;4.66;66.98
5380;BME280;2713;42.680;23.310;2023-11-19T06:59:41;95242.31;;;4.75;66.24
5380;BME280;2713;42.680;23.310;2023-11-19T07:02:09;95247.88;;;4.70;65.81
5380;BME280;2713;42.680;23.310;2023-11-19T07:04:38;95253.00;;;4.70;66.25
5380;BME280;2713;42.680;23.310;2023-11-19T07:07:04;95246.41;;;4.58;66.36
5380;BME280;2713;42.680;23.310;2023-11-19T07:09:32;95233.44;;;4.40;66.49
5380;BME280;2713;42.680;23.310;2023-11-19T07:11:59;95262.69;;;4.30;66.20
5380;BME280;2713;42.680;23.310;2023-11-19T07:14:27;95258.75;;;4.54;65.91
5380;BME280;2713;42.680;23.310;2023-11-19T07:16:54;95247.22;;;4.68;66.47
5380;BME280;2713;42.680;23.310;2023-11-19T07:19:21;95242.88;;;4.49;66.19
5380;BME280;2713;42.680;23.310;2023-11-19T07:21:49;95257.25;;;4.62;66.28
5380;BME280;2713;42.680;23.310;2023-11-19T07:24:16;95248.44;;;4.54;65.90
5380;BME280;2713;42.680;23.310;2023-11-19T07:26:43;95247.75;;;4.52;66.51
5380;BME280;2713;42.680;23.310;2023-11-19T07:29:10;95255.34;;;4.54;66.31
5380;BME280;2713;42.680;23.310;2023-11-19T07:31:37;95262.69;;;4.58;66.37
5380;BME280;2713;42.680;23.310;2023-11-19T07:34:04;95279.88;;;4.58;66.45
5380;BME280;2713;42.680;23.310;2023-11-19T07:36:32;95283.50;;;4.55;65.10
5380;BME280;2713;42.680;23.310;2023-11-19T07:39:00;95282.19;;;4.51;65.98
5380;BME280;2713;42.680;23.310;2023-11-19T07:41:27;95285.97;;;4.57;66.09
5380;BME280;2713;42.680;23.310;2023-11-19T07:43:54;95290.72;;;4.62;64.97
5380;BME280;2713;42.680;23.310;2023-11-19T07:46:22;95271.28;;;4.77;64.19
5380;BME280;2713;42.680;23.310;2023-11-19T07:48:51;95281.44;;;4.88;64.72
5380;BME280;2713;42.680;23.310;2023-11-19T07:51:18;95283.00;;;4.62;65.55
5380;BME280;2713;42.680;23.310;2023-11-19T07:53:45;95293.41;;;4.79;65.12
5380;BME280;2713;42.680;23.310;2023-11-19T07:56:13;95293.25;;;4.81;65.00
5380;BME280;2713;42.680;23.310;2023-11-19T07:58:40;95295.25;;;4.87;63.96
5380;BME280;2713;42.680;23.310;2023-11-19T08:01:07;95291.50;;;4.72;65.06
5380;BME280;2713;42.680;23.310;2023-11-19T08:03:34;95292.31;;;4.72;65.18
5380;BME280;2713;42.680;23.310;2023-11-19T08:06:01;95292.44;;;4.80;65.28
5380;BME280;2713;42.680;23.310;2023-11-19T08:08:28;95298.69;;;4.68;64.52
5380;BME280;2713;42.680;23.310;2023-11-19T08:10:55;95300.59;;;4.76;64.98
5380;BME280;2713;42.680;23.310;2023-11-19T08:13:24;95305.97;;;4.92;64.56
5380;BME280;2713;42.680;23.310;2023-11-19T08:15:51;95305.56;;;4.87;64.58
5380;BME280;2713;42.680;23.310;2023-11-19T08:18:18;95316.97;;;4.84;63.94
5380;BME280;2713;42.680;23.310;2023-11-19T08:20:45;95315.34;;;4.74;64.04
5380;BME280;2713;42.680;23.310;2023-11-19T08:23:14;95313.03;;;4.71;64.33
5380;BME280;2713;42.680;23.310;2023-11-19T08:25:41;95322.13;;;4.55;65.76
5380;BME280;2713;42.680;23.310;2023-11-19T08:28:08;95314.41;;;4.46;66.18
5380;BME280;2713;42.680;23.310;2023-11-19T08:30:36;95325.25;;;4.49;66.10
5380;BME280;2713;42.680;23.310;2023-11-19T08:33:03;95316.44;;;4.71;64.96
5380;BME280;2713;42.680;23.310;2023-11-19T08:35:31;95320.63;;;4.63;65.52
5380;BME280;2713;42.680;23.310;2023-11-19T08:37:58;95312.50;;;4.67;65.16
5380;BME280;2713;42.680;23.310;2023-11-19T08:40:25;95327.41;;;4.83;64.06
5380;BME280;2713;42.680;23.310;2023-11-19T08:42:52;95334.31;;;4.73;64.99
5380;BME280;2713;42.680;23.310;2023-11-19T08:45:19;95330.25;;;4.60;64.99
5380;BME280;2713;42.680;23.310;2023-11-19T08:47:47;95326.59;;;4.63;64.35
5380;BME280;2713;42.680;23.310;2023-11-19T08:50:14;95318.72;;;4.74;63.62
5380;BME280;2713;42.680;23.310;2023-11-19T08:52:41;95326.31;;;4.85;63.87
5380;BME280;2713;42.680;23.310;2023-11-19T08:55:08;95329.81;;;4.94;63.76
5380;BME280;2713;42.680;23.310;2023-11-19T08:57:35;95331.56;;;4.93;64.52
5380;BME280;2713;42.680;23.310;2023-11-19T09:00:02;95328.75;;;4.87;63.63
5380;BME280;2713;42.680;23.310;2023-11-19T09:02:32;95324.97;;;4.81;63.42
5380;BME280;2713;42.680;23.310;2023-11-19T09:05:01;95319.28;;;4.78;63.62
5380;BME280;2713;42.680;23.310;2023-11-19T09:07:28;95310.31;;;4.82;63.68
5380;BME280;2713;42.680;23.310;2023-11-19T09:09:55;95315.75;;;4.79;63.79
5380;BME280;2713;42.680;23.310;2023-11-19T09:12:22;95310.06;;;4.85;63.13
5380;BME280;2713;42.680;23.310;2023-11-19T09:14:49;95310.84;;;4.95;63.92
5380;BME280;2713;42.680;23.310;2023-11-19T09:17:16;95295.31;;;5.14;63.50
5380;BME280;2713;42.680;23.310;2023-11-19T09:19:44;95306.16;;;5.27;62.78
5380;BME280;2713;42.680;23.310;2023-11-19T09:22:12;95292.28;;;5.28;62.01
5380;BME280;2713;42.680;23.310;2023-11-19T09:24:42;95321.09;;;5.24;61.47
5380;BME280;2713;42.680;23.310;2023-11-19T09:27:10;95320.84;;;5.17;62.24
5380;BME280;2713;42.680;23.310;2023-11-19T09:29:37;95331.53;;;5.22;62.00
5380;BME280;2713;42.680;23.310;2023-11-19T09:32:07;95336.78;;;5.21;61.59
5380;BME280;2713;42.680;23.310;2023-11-19T09:34:37;95318.34;;;5.25;62.10
5380;BME280;2713;42.680;23.310;2023-11-19T09:37:04;95310.09;;;5.22;61.64
5380;BME280;2713;42.680;23.310;2023-11-19T09:39:32;95302.34;;;5.22;62.50
5380;BME280;2713;42.680;23.310;2023-11-19T09:41:59;95292.63;;;5.16;61.96
5380;BME280;2713;42.680;23.310;2023-11-19T09:44:26;95295.88;;;5.08;62.34
5380;BME280;2713;42.680;23.310;2023-11-19T09:46:53;95280.94;;;5.21;62.23
5380;BME280;2713;42.680;23.310;2023-11-19T09:49:21;95279.22;;;5.12;61.75
5380;BME280;2713;42.680;23.310;2023-11-19T09:51:52;95264.69;;;5.11;61.65
5380;BME280;2713;42.680;23.310;2023-11-19T09:54:19;95251.94;;;5.19;61.74
5380;BME280;2713;42.680;23.310;2023-11-19T09:56:47;95255.16;;;5.21;62.78
5380;BME280;2713;42.680;23.310;2023-11-19T09:59:15;95258.88;;;5.09;62.20
5380;BME280;2713;42.680;23.310;2023-11-19T10:01:44;95248.81;;;5.16;62.01
5380;BME280;2713;42.680;23.310;2023-11-19T10:04:14;95257.09;;;5.19;62.53
5380;BME280;2713;42.680;23.310;2023-11-19T10:06:42;95259.81;;;5.08;62.49
5380;BME280;2713;42.680;23.310;2023-11-19T10:09:09;95246.53;;;5.13;62.51
5380;BME280;2713;42.680;23.310;2023-11-19T10:11:35;95250.97;;;5.20;62.78
5380;BME280;2713;42.680;23.310;2023-11-19T10:14:04;95255.19;;;5.11;63.05
5380;BME280;2713;42.680;23.310;2023-11-19T10:16:34;95250.22;;;5.10;62.15
5380;BME280;2713;42.680;23.310;2023-11-19T10:19:01;95252.06;;;5.18;61.82
5380;BME280;2713;42.680;23.310;2023-11-19T10:21:29;95265.00;;;5.35;61.55
5380;BME280;2713;42.680;23.310;2023-11-19T10:23:58;95256.16;;;5.47;60.72
5380;BME280;2713;42.680;23.310;2023-11-19T10:26:26;95261.25;;;5.57;61.45
5380;BME280;2713;42.680;23.310;2023-11-19T10:28:55;95261.28;;;5.75;59.99
5380;BME280;2713;42.680;23.310;2023-11-19T10:31:24;95239.72;;;5.48;61.43
5380;BME280;2713;42.680;23.310;2023-11-19T10:33:56;95243.91;;;5.77;60.81
5380;BME280;2713;42.680;23.310;2023-11-19T10:36:37;95237.97;;;5.67;60.51
5380;BME280;2713;42.680;23.310;2023-11-19T10:39:04;95242.00;;;5.79;60.55
5380;BME280;2713;42.680;23.310;2023-11-19T10:41:32;95234.75;;;5.82;60.02
5380;BME280;2713;42.680;23.310;2023-11-19T10:43:59;95247.97;;;5.52;62.00
5380;BME280;2713;42.680;23.310;2023-11-19T10:46:37;95247.97;;;5.52;61.44
5380;BME280;2713;42.680;23.310;2023-11-19T10:49:05;95246.81;;;5.64;61.02
5380;BME280;2713;42.680;23.310;2023-11-19T10:51:33;95244.25;;;5.64;61.22
5380;BME280;2713;42.680;23.310;2023-11-19T10:54:02;95251.28;;;5.44;61.61
5380;BME280;2713;42.680;23.310;2023-11-19T10:56:31;95231.50;;;5.35;61.69
5380;BME280;2713;42.680;23.310;2023-11-19T10:58:59;95236.50;;;5.64;61.82
5380;BME280;2713;42.680;23.310;2023-11-19T11:01:32;95239.56;;;5.77;61.16
5380;BME280;2713;42.680;23.310;2023-11-19T11:04:05;95232.63;;;5.78;61.79
5380;BME280;2713;42.680;23.310;2023-11-19T11:06:34;95217.38;;;5.84;60.64
5380;BME280;2713;42.680;23.310;2023-11-19T11:09:02;95213.22;;;6.01;60.39
5380;BME280;2713;42.680;23.310;2023-11-19T11:11:30;95195.81;;;6.03;59.25
5380;BME280;2713;42.680;23.310;2023-11-19T11:13:59;95194.13;;;6.11;59.92
5380;BME280;2713;42.680;23.310;2023-11-19T11:16:33;95191.81;;;6.26;59.06
5380;BME280;2713;42.680;23.310;2023-11-19T11:19:03;95188.47;;;6.34;59.11
5380;BME280;2713;42.680;23.310;2023-11-19T11:21:30;95190.84;;;6.27;58.71
5380;BME280;2713;42.680;23.310;2023-11-19T11:24:24;95180.88;;;6.32;58.26
5380;BME280;2713;42.680;23.310;2023-11-19T11:27:25;95198.72;;;6.43;58.47
5380;BME280;2713;42.680;23.310;2023-11-19T11:30:11;95203.06;;;6.43;57.49
5380;BME280;2713;42.680;23.310;2023-11-19T11:32:47;95197.72;;;6.36;58.18
5380;BME280;2713;42.680;23.310;2023-11-19T11:35:30;95200.38;;;6.27;58.04
5380;BME280;2713;42.680;23.310;2023-11-19T11:38:03;95199.50;;;6.18;58.55
5380;BME280;2713;42.680;23.310;2023-11-19T11:40:30;95184.41;;;6.05;59.38
5380;BME280;2713;42.680;23.310;2023-11-19T11:42:57;95179.16;;;6.15;58.97
5380;BME280;2713;42.680;23.310;2023-11-19T11:45:38;95173.25;;;6.23;59.29
5380;BME280;2713;42.680;23.310;2023-11-19T11:48:26;95164.91;;;6.29;58.59
5380;BME280;2713;42.680;23.310;2023-11-19T11:50:57;95146.97;;;6.27;57.96
5380;BME280;2713;42.680;23.310;2023-11-19T11:53:25;95159.28;;;6.59;57.95
5380;BME280;2713;42.680;23.310;2023-11-19T11:55:57;95160.22;;;6.58;57.42
5380;BME280;2713;42.680;23.310;2023-11-19T11:58:41;95165.88;;;6.53;57.22
5380;BME280;2713;42.680;23.310;2023-11-19T12:01:15;95173.94;;;6.50;57.66
5380;BME280;2713;42.680;23.310;2023-11-19T12:03:45;95169.00;;;6.65;56.83
5380;BME280;2713;42.680;23.310;2023-11-19T12:06:14;95170.31;;;7.03;55.58
5380;BME280;2713;42.680;23.310;2023-11-19T12:08:41;95170.91;;;7.31;55.16
5380;BME280;2713;42.680;23.310;2023-11-19T12:11:07;95166.63;;;7.55;54.97
5380;BME280;2713;42.680;23.310;2023-11-19T12:13:53;95165.53;;;7.74;53.96
5380;BME280;2713;42.680;23.310;2023-11-19T12:16:21;95160.38;;;7.82;53.79
5380;BME280;2713;42.680;23.310;2023-11-19T12:18:47;95167.31;;;7.82;54.21
5380;BME280;2713;42.680;23.310;2023-11-19T12:21:29;95151.50;;;8.01;53.97
5380;BME280;2713;42.680;23.310;2023-11-19T12:23:58;95142.28;;;8.06;53.53
5380;BME280;2713;42.680;23.310;2023-11-19T12:26:34;95137.91;;;7.99;53.64
5380;BME280;2713;42.680;23.310;2023-11-19T12:29:01;95131.59;;;8.01;53.84
5380;BME280;2713;42.680;23.310;2023-11-19T12:31:32;95137.41;;;8.20;53.10
5380;BME280;2713;42.680;23.310;2023-11-19T12:34:11;95124.97;;;8.23;53.22
5380;BME280;2713;42.680;23.310;2023-11-19T12:36:40;95123.50;;;8.21;52.50
5380;BME280;2713;42.680;23.310;2023-11-19T12:39:10;95127.72;;;7.97;54.04
5380;BME280;2713;42.680;23.310;2023-11-19T12:41:52;95116.84;;;7.61;55.39
5380;BME280;2713;42.680;23.310;2023-11-19T12:44:20;95119.09;;;7.48;55.71
5380;BME280;2713;42.680;23.310;2023-11-19T12:46:59;95106.81;;;7.58;55.44
5380;BME280;2713;42.680;23.310;2023-11-19T12:49:26;95108.78;;;7.64;55.69
5380;BME280;2713;42.680;23.310;2023-11-19T12:51:54;95111.38;;;7.56;56.08
5380;BME280;2713;42.680;23.310;2023-11-19T12:54:32;95120.84;;;7.40;56.13
5380;BME280;2713;42.680;23.310;2023-11-19T12:56:58;95113.91;;;7.32;56.43
5380;BME280;2713;42.680;23.310;2023-11-19T12:59:25;95115.66;;;7.32;56.79
5380;BME280;2713;42.680;23.310;2023-11-19T13:01:56;95088.69;;;7.34;56.21
5380;BME280;2713;42.680;23.310;2023-11-19T13:04:23;95096.78;;;7.39;57.29
5380;BME280;2713;42.680;23.310;2023-11-19T13:06:55;95095.47;;;7.43;56.72
5380;BME280;2713;42.680;23.310;2023-11-19T13:09:23;95094.97;;;7.40;56.76
5380;BME280;2713;42.680;23.310;2023-11-19T13:11:51;95094.84;;;7.41;57.12
5380;BME280;2713;42.680;23.310;2023-11-19T13:14:18;95100.81;;;7.42;57.35
5380;BME280;2713;42.680;23.310;2023-11-19T13:16:45;95097.75;;;7.54;57.17
5380;BME280;2713;42.680;23.310;2023-11-19T13:19:13;95093.56;;;7.45;56.90
5380;BME280;2713;42.680;23.310;2023-11-19T13:21:41;95089.03;;;7.39;57.30
5380;BME280;2713;42.680;23.310;2023-11-19T13:24:12;95084.19;;;7.36;56.62
5380;BME280;2713;42.680;23.310;2023-11-19T13:26:39;95075.28;;;7.39;56.79
5380;BME280;2713;42.680;23.310;2023-11-19T13:29:06;95075.28;;;7.39;56.38